Yellow Pine, Idaho
Current Conditions -  °F | °C
As of 4:51 PM on Sunday 21 Dec 2014 (Local Time) from KMYL Reporting Station
Overcast Overcast  
Wind Chill: 29°   Ceiling: 9500
Heat Index: 34°   Visibility: 10mi
Dew Point: 31°   Wind: 6mph
Humidity: 89%   Direction: 310°NW
Pressure: 29.95"   Gusts: NA
Location:  44.96°N, 115.49°W
Report Text: KMYL 212351Z AUTO 31005KT 10SM FEW060 BKN095 OVC120 01/M01 A2995 RMK AO2 UPB35E44 SLP160 P0000 60007 T00111006 10017 20006 53019
Loading
Personal Weather Stations






























Interactive Weather Map New forecast layout! Learn more

10-Day Weather Forecast

Advertisements
Track Severe Weather on mobile